Greendale, Wisconsin
Current Conditions -  °F | °C
As of 2:12 PM on Sunday 25 Jan 2015 (Local Time) from KMKE Reporting Station
Broken Clouds Broken Clouds  
Wind Chill: 12°   Ceiling: 2300
Heat Index: 26°   Visibility: 10mi
Dew Point: 15°   Wind: 20mph
Humidity: 63%   Direction: 30°NNE
Pressure: 29.93"   Gusts: 28mph
Location:  42.94°N, 87.99°W
Report Text: KMKE 252012Z 03017G24KT 10SM BKN023 BKN110 M03/M09 A2993 RMK AO2 T10331094
Loading
Personal Weather Stations






























Interactive Weather Map New forecast layout! Learn more

10-Day Weather Forecast

Advertisements
Track Severe Weather on mobile